createdAt,value
2023-05-12T00:00:48.515Z,10.90
2023-05-12T00:03:18.141Z,11.00
2023-05-12T00:05:46.500Z,10.90
2023-05-12T00:08:14.871Z,10.90
2023-05-12T00:10:43.196Z,10.80
2023-05-12T00:13:11.607Z,10.70
2023-05-12T00:15:40.078Z,10.80
2023-05-12T00:18:08.242Z,10.60
2023-05-12T00:20:37.783Z,10.70
2023-05-12T00:23:05.987Z,10.90
2023-05-12T00:25:34.397Z,10.90
2023-05-12T00:28:02.942Z,10.80
2023-05-12T00:30:31.175Z,10.80
2023-05-12T00:32:59.830Z,10.80
2023-05-12T00:35:28.496Z,11.00
2023-05-12T00:37:58.634Z,11.00
2023-05-12T00:40:26.885Z,10.90
2023-05-12T00:42:55.039Z,11.10
2023-05-12T00:45:23.814Z,11.00
2023-05-12T00:47:53.239Z,10.90
2023-05-12T00:50:22.308Z,11.10
2023-05-12T00:52:51.345Z,11.00
2023-05-12T00:55:21.675Z,11.10
2023-05-12T00:57:49.975Z,11.10
2023-05-12T01:00:18.730Z,11.00
2023-05-12T01:02:47.835Z,11.10
2023-05-12T01:05:16.364Z,11.10
2023-05-12T01:07:45.539Z,11.20
2023-05-12T01:10:22.648Z,11.20
2023-05-12T01:12:51.196Z,11.10
2023-05-12T01:15:19.781Z,11.10
2023-05-12T01:17:54.731Z,11.20
2023-05-12T01:20:26.751Z,11.20
2023-05-12T01:22:56.244Z,11.00
2023-05-12T01:25:27.927Z,11.10
2023-05-12T01:27:57.908Z,11.00
2023-05-12T01:30:27.310Z,11.00
2023-05-12T01:32:56.248Z,11.20
2023-05-12T01:35:24.527Z,11.20
2023-05-12T01:37:53.635Z,11.30
2023-05-12T01:40:22.089Z,11.40
2023-05-12T01:42:50.734Z,11.30
2023-05-12T01:45:20.420Z,11.30
2023-05-12T01:47:51.976Z,11.20
2023-05-12T01:50:21.167Z,11.20
2023-05-12T01:52:49.805Z,11.20
2023-05-12T01:55:18.523Z,11.20
2023-05-12T01:57:46.814Z,11.10
2023-05-12T02:00:15.566Z,11.00
2023-05-12T02:02:46.023Z,11.00
2023-05-12T02:05:14.325Z,10.90
2023-05-12T02:07:42.773Z,10.80
2023-05-12T02:10:11.429Z,10.90
2023-05-12T02:12:39.820Z,10.90
2023-05-12T02:15:08.679Z,10.90
2023-05-12T02:17:37.273Z,10.90
2023-05-12T02:20:09.426Z,10.90
2023-05-12T02:22:37.583Z,10.80
2023-05-12T02:25:06.740Z,10.80
2023-05-12T02:27:34.873Z,10.90
2023-05-12T02:30:03.303Z,10.80
2023-05-12T02:32:31.611Z,10.90
2023-05-12T02:34:59.860Z,10.90
2023-05-12T02:37:29.423Z,11.00
2023-05-12T02:39:57.733Z,10.90
2023-05-12T02:42:28.812Z,10.80
2023-05-12T02:44:57.081Z,10.90
2023-05-12T02:47:25.384Z,10.90
2023-05-12T02:49:55.565Z,11.00
2023-05-12T02:52:24.092Z,11.00
2023-05-12T02:54:53.560Z,10.90
2023-05-12T02:57:21.756Z,11.00
2023-05-12T02:59:49.927Z,11.00
2023-05-12T03:02:18.178Z,11.10
2023-05-12T03:04:46.363Z,11.00
2023-05-12T03:07:14.509Z,11.00
2023-05-12T03:09:42.848Z,10.90
2023-05-12T03:12:13.480Z,10.90
2023-05-12T03:14:41.837Z,10.90
2023-05-12T03:17:10.276Z,10.90
2023-05-12T03:19:39.205Z,10.90
2023-05-12T03:22:08.257Z,10.90
2023-05-12T03:24:36.631Z,10.90
2023-05-12T03:27:05.069Z,11.00
2023-05-12T03:29:34.568Z,11.10
2023-05-12T03:32:02.813Z,11.10
2023-05-12T03:34:31.557Z,11.20
2023-05-12T03:36:59.712Z,11.20
2023-05-12T03:39:29.104Z,11.20
2023-05-12T03:41:57.345Z,11.20
2023-05-12T03:44:25.474Z,11.30
2023-05-12T03:47:14.396Z,11.30
2023-05-12T03:49:42.733Z,11.30
2023-05-12T03:52:10.923Z,11.20
2023-05-12T03:54:39.141Z,10.90
2023-05-12T03:57:08.223Z,10.90
2023-05-12T03:59:36.531Z,11.00
2023-05-12T04:02:07.856Z,11.00
2023-05-12T04:04:36.798Z,11.10
2023-05-12T04:07:05.228Z,11.10
2023-05-12T04:09:33.569Z,11.10
2023-05-12T04:12:01.908Z,11.10
2023-05-12T04:14:41.718Z,11.20
2023-05-12T04:17:12.121Z,11.20
2023-05-12T04:19:40.357Z,11.20
2023-05-12T04:22:08.486Z,11.30
2023-05-12T04:24:38.533Z,11.30
2023-05-12T04:27:07.310Z,11.30
2023-05-12T04:29:36.285Z,11.30
2023-05-12T04:32:04.679Z,11.30
2023-05-12T04:34:34.329Z,11.30
2023-05-12T04:37:02.422Z,11.30
2023-05-12T04:39:30.530Z,11.30
2023-05-12T04:41:58.776Z,11.30
2023-05-12T04:44:26.976Z,11.20
2023-05-12T04:46:56.512Z,11.20
2023-05-12T04:49:24.786Z,11.40
2023-05-12T04:51:54.299Z,11.40
2023-05-12T04:54:22.932Z,11.50
2023-05-12T04:56:51.540Z,11.60
2023-05-12T04:59:20.728Z,11.60
2023-05-12T05:01:49.234Z,11.70
2023-05-12T05:04:17.547Z,11.70
2023-05-12T05:06:46.150Z,11.70
2023-05-12T05:09:16.764Z,11.80
2023-05-12T05:11:45.065Z,11.70
2023-05-12T05:14:13.199Z,11.60
2023-05-12T05:16:41.496Z,11.60
2023-05-12T05:19:20.073Z,11.70
2023-05-12T05:21:50.775Z,11.90
2023-05-12T05:24:20.533Z,12.00
2023-05-12T05:26:48.922Z,12.00
2023-05-12T05:29:17.219Z,12.10
2023-05-12T05:31:45.750Z,12.20
2023-05-12T05:34:14.199Z,12.40
2023-05-12T05:36:45.069Z,12.60
2023-05-12T05:39:14.018Z,12.70
2023-05-12T05:41:43.753Z,12.70
2023-05-12T05:44:11.953Z,12.80
2023-05-12T05:46:40.403Z,12.80
2023-05-12T05:49:08.808Z,12.70
2023-05-12T05:51:37.127Z,12.70
2023-05-12T05:54:06.471Z,12.80
2023-05-12T05:56:36.042Z,13.10
2023-05-12T05:59:06.285Z,13.30
2023-05-12T06:01:34.535Z,13.30
2023-05-12T06:04:02.887Z,13.20
2023-05-12T06:06:31.382Z,13.10
2023-05-12T06:08:59.693Z,13.20
2023-05-12T06:11:28.077Z,13.20
2023-05-12T06:13:57.152Z,13.20
2023-05-12T06:16:27.727Z,13.20
2023-05-12T06:18:56.050Z,13.50
2023-05-12T06:21:24.784Z,13.40
2023-05-12T06:23:54.845Z,13.30
2023-05-12T06:26:23.126Z,13.60
2023-05-12T06:28:51.497Z,13.90
2023-05-12T06:31:20.039Z,13.70
2023-05-12T06:33:50.499Z,13.80
2023-05-12T06:36:18.617Z,13.70
2023-05-12T06:38:47.118Z,14.00
2023-05-12T06:41:15.614Z,14.30
2023-05-12T06:43:43.878Z,14.10
2023-05-12T06:46:12.365Z,14.30
2023-05-12T06:48:40.568Z,14.60
2023-05-12T06:51:10.455Z,14.90
2023-05-12T06:53:38.686Z,15.10
2023-05-12T06:56:07.297Z,15.10
2023-05-12T06:58:35.519Z,15.40
2023-05-12T07:01:03.829Z,15.70
2023-05-12T07:03:33.603Z,15.70
2023-05-12T07:06:02.076Z,15.80
2023-05-12T07:08:32.207Z,15.70
2023-05-12T07:11:01.246Z,15.70
2023-05-12T07:13:29.605Z,15.70
2023-05-12T07:15:57.932Z,15.70
2023-05-12T07:18:26.629Z,15.50
2023-05-12T07:20:54.804Z,15.40
2023-05-12T07:23:23.334Z,14.80
2023-05-12T07:25:53.020Z,14.70
2023-05-12T07:28:21.157Z,15.10
2023-05-12T07:30:49.552Z,15.10
2023-05-12T07:33:17.801Z,15.20
2023-05-12T07:35:46.877Z,15.10
2023-05-12T07:38:15.575Z,15.10
2023-05-12T07:40:44.673Z,15.10
2023-05-12T07:43:17.409Z,15.20
2023-05-12T07:45:46.081Z,15.30
2023-05-12T07:48:14.662Z,15.40
2023-05-12T07:50:42.899Z,15.50
2023-05-12T07:53:11.222Z,15.40
2023-05-12T07:55:39.997Z,16.00
2023-05-12T07:58:08.128Z,16.60
2023-05-12T08:00:40.778Z,16.50
2023-05-12T08:03:09.574Z,16.60
2023-05-12T08:05:37.863Z,17.00
2023-05-12T08:08:06.800Z,17.50
2023-05-12T08:10:35.441Z,17.40
2023-05-12T08:13:03.696Z,17.30
2023-05-12T08:15:32.255Z,17.30
2023-05-12T08:18:02.123Z,17.90
2023-05-12T08:20:31.510Z,18.20
2023-05-12T08:23:00.036Z,18.90
2023-05-12T08:25:30.531Z,19.30
2023-05-12T08:27:59.823Z,20.20
2023-05-12T08:30:28.307Z,20.90
2023-05-12T08:32:57.124Z,21.20
2023-05-12T08:35:28.358Z,21.20
2023-05-12T08:37:57.370Z,21.90
2023-05-12T08:40:26.697Z,22.30
2023-05-12T08:43:01.816Z,22.40
2023-05-12T08:45:31.216Z,22.30
2023-05-12T08:48:00.999Z,23.70
2023-05-12T08:50:33.773Z,24.20
2023-05-12T08:53:05.484Z,24.40
2023-05-12T08:55:36.165Z,24.10
2023-05-12T08:58:04.976Z,23.30
2023-05-12T09:00:36.236Z,22.90
2023-05-12T09:03:07.858Z,24.10
2023-05-12T09:05:38.590Z,25.50
2023-05-12T09:08:07.791Z,25.80
2023-05-12T09:10:36.867Z,26.10
2023-05-12T09:13:14.683Z,26.20
2023-05-12T09:15:49.502Z,27.40
2023-05-12T09:18:17.778Z,26.00
2023-05-12T09:20:47.445Z,25.40
2023-05-12T09:23:17.225Z,24.30
2023-05-12T09:25:47.058Z,23.40
2023-05-12T09:28:16.194Z,22.80
2023-05-12T09:30:44.481Z,22.60
2023-05-12T09:33:14.609Z,22.50
2023-05-12T09:35:43.855Z,22.20
2023-05-12T09:38:16.592Z,22.20
2023-05-12T09:40:44.765Z,22.80
2023-05-12T09:43:15.303Z,23.40
2023-05-12T09:45:46.658Z,23.20
2023-05-12T09:48:15.016Z,23.70
2023-05-12T09:50:48.558Z,24.20
2023-05-12T09:53:19.628Z,24.50
2023-05-12T09:55:49.497Z,25.40
2023-05-12T09:58:18.891Z,24.50
2023-05-12T10:03:22.292Z,22.90
2023-05-12T10:05:51.902Z,22.30
2023-05-12T10:08:28.709Z,20.90
2023-05-12T10:10:59.426Z,21.10
2023-05-12T10:13:27.833Z,22.00
2023-05-12T10:15:58.168Z,23.10
2023-05-12T10:18:43.817Z,24.50
2023-05-12T10:21:20.881Z,24.10
2023-05-12T10:23:52.217Z,22.70
2023-05-12T10:26:21.546Z,22.50
2023-05-12T10:28:50.967Z,22.50
2023-05-12T10:31:20.369Z,22.70
2023-05-12T10:33:58.644Z,22.50
2023-05-12T10:36:27.806Z,22.90
2023-05-12T10:39:05.683Z,22.40
2023-05-12T10:41:35.055Z,22.80
2023-05-12T10:44:03.713Z,22.90
2023-05-12T10:46:32.231Z,22.50
2023-05-12T10:49:04.095Z,22.10
2023-05-12T10:51:33.509Z,23.00
2023-05-12T10:54:09.132Z,22.60
2023-05-12T10:56:45.613Z,22.90
2023-05-12T10:59:17.691Z,22.80
2023-05-12T11:02:00.193Z,22.20
2023-05-12T11:04:44.687Z,22.20
2023-05-12T11:07:16.557Z,22.60
2023-05-12T11:09:57.855Z,22.50
2023-05-12T11:12:30.248Z,22.70
2023-05-12T11:15:02.399Z,23.00
2023-05-12T11:17:30.988Z,23.50
2023-05-12T11:20:00.915Z,23.80
2023-05-12T11:22:29.576Z,23.60
2023-05-12T11:24:59.438Z,23.00
2023-05-12T11:27:28.221Z,22.80
2023-05-12T11:30:00.977Z,23.10
2023-05-12T11:32:30.472Z,22.80
2023-05-12T11:35:10.071Z,23.30
2023-05-12T11:37:39.581Z,24.10
2023-05-12T11:40:20.991Z,24.00
2023-05-12T11:42:52.464Z,22.90
2023-05-12T11:45:23.117Z,22.80
2023-05-12T11:47:51.610Z,23.60
2023-05-12T11:50:24.490Z,22.90
2023-05-12T11:52:53.882Z,22.90
2023-05-12T11:55:25.477Z,23.30
2023-05-12T11:58:01.814Z,23.90
2023-05-12T12:00:32.358Z,23.70
2023-05-12T12:03:08.494Z,23.50
2023-05-12T12:05:37.719Z,23.30
2023-05-12T12:08:08.259Z,23.00
2023-05-12T12:10:38.188Z,23.30
2023-05-12T12:13:06.635Z,22.40
2023-05-12T12:15:35.575Z,22.40
2023-05-12T12:18:04.524Z,22.80
2023-05-12T12:20:32.866Z,22.70
2023-05-12T12:23:01.130Z,22.30
2023-05-12T12:25:31.542Z,21.70
2023-05-12T12:28:01.179Z,21.00
2023-05-12T12:30:29.504Z,20.60
2023-05-12T12:32:57.816Z,20.70
2023-05-12T12:35:26.131Z,20.40
2023-05-12T12:37:54.413Z,20.20
2023-05-12T12:40:22.708Z,20.20
2023-05-12T12:42:50.889Z,20.20
2023-05-12T12:45:20.798Z,20.30
2023-05-12T12:47:52.228Z,20.00
2023-05-12T12:50:20.795Z,20.10
2023-05-12T12:52:49.200Z,20.20
2023-05-12T12:55:17.698Z,19.90
2023-05-12T12:57:46.133Z,19.70
2023-05-12T13:00:15.282Z,19.80
2023-05-12T13:02:45.062Z,19.80
2023-05-12T13:05:13.421Z,19.90
2023-05-12T13:07:41.926Z,19.80
2023-05-12T13:10:12.227Z,19.90
2023-05-12T13:12:41.597Z,20.10
2023-05-12T13:15:11.666Z,20.10
2023-05-12T13:17:40.636Z,20.20
2023-05-12T13:20:11.436Z,20.10
2023-05-12T13:22:39.866Z,20.00
2023-05-12T13:25:09.375Z,19.90
2023-05-12T13:27:38.068Z,19.90
2023-05-12T13:30:09.129Z,20.20
2023-05-12T13:32:38.824Z,20.00
2023-05-12T13:35:08.857Z,20.30
2023-05-12T13:37:39.236Z,20.20
2023-05-12T13:40:09.588Z,20.10
2023-05-12T13:42:38.379Z,20.30
2023-05-12T13:45:09.255Z,20.10
2023-05-12T13:47:37.764Z,20.00
2023-05-12T13:50:07.697Z,20.20
2023-05-12T13:52:36.071Z,20.20
2023-05-12T13:55:06.422Z,20.50
2023-05-12T13:57:34.879Z,20.50
2023-05-12T14:00:03.342Z,20.50
2023-05-12T14:02:31.967Z,20.40
2023-05-12T14:05:00.392Z,20.40
2023-05-12T14:07:29.345Z,20.30
2023-05-12T14:09:57.930Z,20.30
2023-05-12T14:12:27.864Z,20.10
2023-05-12T14:15:04.508Z,20.10
2023-05-12T14:17:41.268Z,20.10
2023-05-12T14:20:11.676Z,20.10
2023-05-12T14:22:39.953Z,20.20
2023-05-12T14:25:09.078Z,20.30
2023-05-12T14:27:38.903Z,20.10
2023-05-12T14:30:09.271Z,20.00
2023-05-12T14:32:37.678Z,20.00
2023-05-12T14:35:08.289Z,20.10
2023-05-12T14:37:37.673Z,20.10
2023-05-12T14:40:07.864Z,19.90
2023-05-12T14:42:36.105Z,20.10
2023-05-12T14:45:06.623Z,20.40
2023-05-12T14:47:35.080Z,20.60
2023-05-12T14:50:03.982Z,20.50
2023-05-12T14:52:38.251Z,20.30
2023-05-12T14:55:11.427Z,20.20
2023-05-12T14:57:39.682Z,20.30
2023-05-12T15:00:12.343Z,20.40
2023-05-12T15:02:41.434Z,20.60
2023-05-12T15:05:11.971Z,20.50
2023-05-12T15:07:40.940Z,20.60
2023-05-12T15:10:09.725Z,20.70
2023-05-12T15:12:38.283Z,20.70
2023-05-12T15:15:08.989Z,20.70
2023-05-12T15:17:38.874Z,20.50
2023-05-12T15:20:08.362Z,20.20
2023-05-12T15:22:39.764Z,20.20
2023-05-12T15:25:09.539Z,19.90
2023-05-12T15:27:38.269Z,19.90
2023-05-12T15:30:07.972Z,20.00
2023-05-12T15:32:36.349Z,20.10
2023-05-12T15:35:07.283Z,20.00
2023-05-12T15:37:36.203Z,20.10
2023-05-12T15:40:05.320Z,20.30
2023-05-12T15:42:33.690Z,20.20
2023-05-12T15:45:01.902Z,20.20
2023-05-12T15:47:30.146Z,20.10
2023-05-12T15:49:58.632Z,20.10
2023-05-12T15:52:28.279Z,20.00
2023-05-12T15:54:56.695Z,20.00
2023-05-12T15:57:25.083Z,20.20
2023-05-12T15:59:58.734Z,20.20
2023-05-12T16:02:27.768Z,20.10
2023-05-12T16:04:56.140Z,20.10
2023-05-12T16:07:29.383Z,20.00
2023-05-12T16:09:59.420Z,20.10
2023-05-12T16:12:27.580Z,20.00
2023-05-12T16:14:55.741Z,19.70
2023-05-12T16:17:23.991Z,19.60
2023-05-12T16:19:53.521Z,19.40
2023-05-12T16:22:23.386Z,19.30
2023-05-12T16:24:51.495Z,19.10
2023-05-12T16:27:21.117Z,19.00
2023-05-12T16:29:50.498Z,19.00
2023-05-12T16:32:18.900Z,19.20
2023-05-12T16:34:47.134Z,19.20
2023-05-12T16:37:15.302Z,19.10
2023-05-12T16:39:43.701Z,19.20
2023-05-12T16:42:13.173Z,19.20
2023-05-12T16:44:42.872Z,19.20
2023-05-12T16:47:11.179Z,19.30
2023-05-12T16:49:39.485Z,19.20
2023-05-12T16:52:09.136Z,19.30
2023-05-12T16:54:39.192Z,19.30
2023-05-12T16:57:07.714Z,19.30
2023-05-12T16:59:36.840Z,19.40
2023-05-12T17:02:08.314Z,19.60
2023-05-12T17:04:37.662Z,19.60
2023-05-12T17:07:06.222Z,19.70
2023-05-12T17:09:34.641Z,19.80
2023-05-12T17:12:04.323Z,19.90
2023-05-12T17:14:33.311Z,19.80
2023-05-12T17:17:01.680Z,19.70
2023-05-12T17:19:31.309Z,19.70
2023-05-12T17:21:59.596Z,19.70
2023-05-12T17:24:28.230Z,19.80
2023-05-12T17:26:56.468Z,19.60
2023-05-12T17:29:25.222Z,19.50
2023-05-12T17:31:53.717Z,19.50
2023-05-12T17:34:22.488Z,19.40
2023-05-12T17:36:52.580Z,19.40
2023-05-12T17:39:21.250Z,19.20
2023-05-12T17:41:49.426Z,19.20
2023-05-12T17:44:17.595Z,19.00
2023-05-12T17:46:46.218Z,19.00
2023-05-12T17:49:14.548Z,19.00
2023-05-12T17:51:44.432Z,18.90
2023-05-12T17:54:14.758Z,18.80
2023-05-12T17:56:44.650Z,18.80
2023-05-12T17:59:13.046Z,18.80
2023-05-12T18:01:41.795Z,18.70
2023-05-12T18:04:10.369Z,18.80
2023-05-12T18:06:38.680Z,18.70
2023-05-12T18:09:07.354Z,18.80
2023-05-12T18:11:37.136Z,18.80
2023-05-12T18:14:06.125Z,18.80
2023-05-12T18:16:35.124Z,18.70
2023-05-12T18:19:04.968Z,18.60
2023-05-12T18:21:33.765Z,18.50
2023-05-12T18:24:01.974Z,18.50
2023-05-12T18:26:30.864Z,18.50
2023-05-12T18:29:00.592Z,18.70
2023-05-12T18:31:29.500Z,18.70
2023-05-12T18:33:57.866Z,18.70
2023-05-12T18:36:28.960Z,18.60
2023-05-12T18:39:00.009Z,18.50
2023-05-12T18:41:28.868Z,18.30
2023-05-12T18:43:57.138Z,18.40
2023-05-12T18:46:27.177Z,18.20
2023-05-12T18:48:55.698Z,18.20
2023-05-12T18:51:24.236Z,18.30
2023-05-12T18:53:52.876Z,18.30
2023-05-12T18:56:21.612Z,18.20
2023-05-12T18:58:50.048Z,18.30
2023-05-12T19:01:18.484Z,18.20
2023-05-12T19:03:48.661Z,18.10
2023-05-12T19:06:17.396Z,18.20
2023-05-12T19:08:45.813Z,18.10
2023-05-12T19:11:14.112Z,18.00
2023-05-12T19:13:45.327Z,18.00
2023-05-12T19:16:13.736Z,17.90
2023-05-12T19:18:42.306Z,17.80
2023-05-12T19:21:12.426Z,17.60
2023-05-12T19:23:41.788Z,17.60
2023-05-12T19:26:11.084Z,17.40
2023-05-12T19:28:39.744Z,17.50
2023-05-12T19:31:08.535Z,17.40
2023-05-12T19:33:36.841Z,17.30
2023-05-12T19:36:05.551Z,17.10
2023-05-12T19:38:35.688Z,16.90
2023-05-12T19:41:04.164Z,16.80
2023-05-12T19:43:32.915Z,16.90
2023-05-12T19:46:01.250Z,17.00
2023-05-12T19:48:29.574Z,16.90
2023-05-12T19:50:57.913Z,16.80
2023-05-12T19:53:26.755Z,16.80
2023-05-12T19:55:56.837Z,16.80
2023-05-12T19:58:25.608Z,16.60
2023-05-12T20:00:54.219Z,16.50
2023-05-12T20:03:22.887Z,16.40
2023-05-12T20:05:51.604Z,16.30
2023-05-12T20:08:20.276Z,16.40
2023-05-12T20:10:48.536Z,16.40
2023-05-12T20:13:18.850Z,16.20
2023-05-12T20:15:47.586Z,16.20
2023-05-12T20:18:16.970Z,16.10
2023-05-12T20:20:45.318Z,16.10
2023-05-12T20:23:13.787Z,16.20
2023-05-12T20:25:42.301Z,16.10
2023-05-12T20:28:11.748Z,16.00
2023-05-12T20:30:42.141Z,16.00
2023-05-12T20:33:10.469Z,15.90
2023-05-12T20:35:38.906Z,16.00
2023-05-12T20:38:07.650Z,16.00
2023-05-12T20:40:35.969Z,15.90
2023-05-12T20:43:04.326Z,15.80
2023-05-12T20:45:32.832Z,15.80
2023-05-12T20:48:02.841Z,15.80
2023-05-12T20:50:31.365Z,15.80
2023-05-12T20:52:59.653Z,15.70
2023-05-12T20:55:27.990Z,15.70
2023-05-12T20:58:10.570Z,15.60
2023-05-12T21:00:39.431Z,15.50
2023-05-12T21:03:14.521Z,15.60
2023-05-12T21:05:50.644Z,15.50
2023-05-12T21:08:19.415Z,15.50
2023-05-12T21:10:48.372Z,15.40
2023-05-12T21:13:18.131Z,15.40
2023-05-12T21:15:48.182Z,15.40
2023-05-12T21:18:22.560Z,15.40
2023-05-12T21:20:51.533Z,15.30
2023-05-12T21:23:24.423Z,15.30
2023-05-12T21:25:54.765Z,15.10
2023-05-12T21:28:23.638Z,15.20
2023-05-12T21:30:52.413Z,15.10
2023-05-12T21:33:22.601Z,15.10
2023-05-12T21:35:51.060Z,15.00
2023-05-12T21:38:25.663Z,15.10
2023-05-12T21:40:56.280Z,15.00
2023-05-12T21:43:25.696Z,15.00
2023-05-12T21:45:53.895Z,15.00
2023-05-12T21:48:24.901Z,14.90
2023-05-12T21:51:01.226Z,14.90
2023-05-12T21:53:29.970Z,15.00
2023-05-12T21:55:58.263Z,14.80
2023-05-12T21:58:26.737Z,14.70
2023-05-12T22:00:55.122Z,14.90
2023-05-12T22:03:25.413Z,14.80
2023-05-12T22:05:53.816Z,14.80
2023-05-12T22:08:22.588Z,14.70
2023-05-12T22:10:51.132Z,14.50
2023-05-12T22:13:19.488Z,14.40
2023-05-12T22:15:49.299Z,14.30
2023-05-12T22:18:18.105Z,14.30
2023-05-12T22:20:47.734Z,14.40
2023-05-12T22:23:16.109Z,14.30
2023-05-12T22:25:44.598Z,14.30
2023-05-12T22:28:12.866Z,14.30
2023-05-12T22:30:41.654Z,14.20
2023-05-12T22:33:10.108Z,14.30
2023-05-12T22:35:38.606Z,14.30
2023-05-12T22:38:08.477Z,14.30
2023-05-12T22:40:36.732Z,14.30
2023-05-12T22:43:05.448Z,14.30
2023-05-12T22:45:33.975Z,14.40
2023-05-12T22:48:02.487Z,14.40
2023-05-12T22:50:30.899Z,14.40
2023-05-12T22:52:59.179Z,14.50
2023-05-12T22:55:30.817Z,14.40
2023-05-12T22:57:59.826Z,14.50
2023-05-12T23:00:28.571Z,14.60
2023-05-12T23:02:56.799Z,14.50
2023-05-12T23:05:25.258Z,14.30
2023-05-12T23:07:53.578Z,14.30
2023-05-12T23:10:22.164Z,14.40
2023-05-12T23:12:55.872Z,14.30
2023-05-12T23:15:25.119Z,14.20
2023-05-12T23:17:53.648Z,13.90
2023-05-12T23:20:24.735Z,13.70
2023-05-12T23:22:53.317Z,13.90
2023-05-12T23:25:21.900Z,14.00
2023-05-12T23:27:51.495Z,14.00
2023-05-12T23:30:20.266Z,14.10
2023-05-12T23:32:50.400Z,13.80
2023-05-12T23:35:18.837Z,13.90
2023-05-12T23:37:47.551Z,13.80
2023-05-12T23:40:19.256Z,13.70
2023-05-12T23:42:47.654Z,13.90
2023-05-12T23:45:18.674Z,14.00
2023-05-12T23:47:47.096Z,14.00
2023-05-12T23:50:15.521Z,14.00
2023-05-12T23:52:43.759Z,14.10
2023-05-12T23:55:12.792Z,14.10
2023-05-12T23:57:41.200Z,14.10
